createdAt,value
2018-11-25T00:00:10.148Z,4.76
2018-11-25T00:02:38.801Z,4.83
2018-11-25T00:05:08.013Z,4.83
2018-11-25T00:07:36.804Z,4.87
2018-11-25T00:10:05.765Z,4.83
2018-11-25T00:12:34.257Z,4.82
2018-11-25T00:15:02.761Z,4.80
2018-11-25T00:17:31.115Z,4.81
2018-11-25T00:19:59.692Z,4.77
2018-11-25T00:22:28.184Z,4.79
2018-11-25T00:24:56.648Z,4.79
2018-11-25T00:27:24.968Z,4.75
2018-11-25T00:29:53.621Z,4.81
2018-11-25T00:32:21.940Z,4.88
2018-11-25T00:34:50.573Z,4.86
2018-11-25T00:37:19.104Z,4.94
2018-11-25T00:39:47.536Z,4.92
2018-11-25T00:42:16.041Z,4.91
2018-11-25T00:44:44.501Z,5.03
2018-11-25T00:47:13.030Z,5.03
2018-11-25T00:49:41.522Z,5.00
2018-11-25T00:52:09.851Z,5.01
2018-11-25T00:54:38.431Z,5.12
2018-11-25T00:57:07.488Z,5.02
2018-11-25T00:59:35.949Z,4.95
2018-11-25T01:02:04.452Z,4.91
2018-11-25T01:04:32.756Z,5.08
2018-11-25T01:07:01.058Z,5.00
2018-11-25T01:09:29.389Z,5.04
2018-11-25T01:11:57.824Z,5.08
2018-11-25T01:14:26.185Z,5.05
2018-11-25T01:16:54.770Z,5.04
2018-11-25T01:19:23.277Z,5.10
2018-11-25T01:21:51.585Z,5.05
2018-11-25T01:24:20.260Z,5.06
2018-11-25T01:26:48.701Z,5.04
2018-11-25T01:29:17.020Z,5.06
2018-11-25T01:31:45.658Z,5.05
2018-11-25T01:34:14.158Z,5.05
2018-11-25T01:36:42.624Z,5.04
2018-11-25T01:39:10.953Z,5.05
2018-11-25T01:41:39.245Z,5.00
2018-11-25T01:44:07.572Z,4.98
2018-11-25T01:46:36.053Z,4.93
2018-11-25T01:49:04.397Z,4.81
2018-11-25T01:51:32.710Z,4.96
2018-11-25T01:54:01.041Z,4.91
2018-11-25T01:56:29.452Z,4.96
2018-11-25T01:58:57.963Z,5.12
2018-11-25T02:01:26.949Z,5.05
2018-11-25T02:03:55.429Z,5.05
2018-11-25T02:06:23.907Z,5.02
2018-11-25T02:08:52.240Z,4.93
2018-11-25T02:11:20.559Z,4.95
2018-11-25T02:13:49.340Z,4.90
2018-11-25T02:16:17.684Z,4.84
2018-11-25T02:18:46.302Z,5.09
2018-11-25T02:21:15.308Z,4.95
2018-11-25T02:23:43.575Z,4.96
2018-11-25T02:26:11.882Z,4.98
2018-11-25T02:28:40.155Z,4.94
2018-11-25T02:31:08.478Z,4.98
2018-11-25T02:33:36.728Z,4.97
2018-11-25T02:36:05.068Z,5.03
2018-11-25T02:38:33.342Z,5.06
2018-11-25T02:41:01.628Z,5.05
2018-11-25T02:43:29.927Z,5.06
2018-11-25T02:45:58.236Z,5.01
2018-11-25T02:48:26.519Z,4.88
2018-11-25T02:50:54.820Z,5.03
2018-11-25T02:53:23.104Z,4.77
2018-11-25T02:55:51.645Z,4.71
2018-11-25T02:58:19.928Z,4.58
2018-11-25T03:00:48.228Z,4.33
2018-11-25T03:03:16.488Z,4.37
2018-11-25T03:05:44.921Z,4.43
2018-11-25T03:08:13.196Z,4.43
2018-11-25T03:10:41.877Z,4.21
2018-11-25T03:13:10.337Z,4.09
2018-11-25T03:15:38.840Z,3.70
2018-11-25T03:18:07.321Z,3.56
2018-11-25T03:20:35.803Z,3.65
2018-11-25T03:23:04.284Z,3.65
2018-11-25T03:25:33.296Z,3.65
2018-11-25T03:28:02.253Z,3.70
2018-11-25T03:30:30.763Z,3.84
2018-11-25T03:32:59.225Z,3.86
2018-11-25T03:35:27.507Z,3.99
2018-11-25T03:37:55.820Z,4.15
2018-11-25T03:40:24.136Z,4.08
2018-11-25T03:42:52.648Z,4.16
2018-11-25T03:45:22.174Z,4.24
2018-11-25T03:47:50.492Z,4.27
2018-11-25T03:50:18.836Z,4.26
2018-11-25T03:52:47.164Z,4.31
2018-11-25T03:55:16.906Z,4.31
2018-11-25T03:57:45.203Z,4.30
2018-11-25T04:00:18.987Z,4.33
2018-11-25T04:02:47.335Z,4.22
2018-11-25T04:05:17.173Z,4.18
2018-11-25T04:07:45.908Z,4.19
2018-11-25T04:10:16.100Z,4.29
2018-11-25T04:12:44.451Z,4.32
2018-11-25T04:15:14.409Z,4.38
2018-11-25T04:17:42.764Z,4.37
2018-11-25T04:20:13.094Z,4.34
2018-11-25T04:22:41.393Z,4.36
2018-11-25T04:25:10.376Z,4.38
2018-11-25T04:27:38.692Z,4.46
2018-11-25T04:30:10.452Z,4.45
2018-11-25T04:32:38.768Z,4.45
2018-11-25T04:35:08.365Z,4.55
2018-11-25T04:37:36.677Z,4.55
2018-11-25T04:40:05.402Z,4.55
2018-11-25T04:42:33.752Z,4.54
2018-11-25T04:45:02.014Z,4.53
2018-11-25T04:47:30.317Z,4.50
2018-11-25T04:49:58.620Z,4.35
2018-11-25T04:52:26.909Z,4.09
2018-11-25T04:54:55.208Z,3.99
2018-11-25T04:57:23.521Z,3.95
2018-11-25T04:59:51.800Z,3.65
2018-11-25T05:02:20.084Z,3.46
2018-11-25T05:04:48.344Z,3.09
2018-11-25T05:07:16.908Z,2.78
2018-11-25T05:09:45.558Z,2.67
2018-11-25T05:12:13.841Z,2.57
2018-11-25T05:14:42.852Z,2.48
2018-11-25T05:17:11.333Z,2.36
2018-11-25T05:19:39.652Z,2.30
2018-11-25T05:22:08.292Z,2.15
2018-11-25T05:24:36.800Z,1.99
2018-11-25T05:27:05.281Z,1.98
2018-11-25T05:29:33.592Z,2.02
2018-11-25T05:32:02.231Z,2.11
2018-11-25T05:34:30.538Z,2.00
2018-11-25T05:36:59.176Z,1.82
2018-11-25T05:39:27.469Z,1.66
2018-11-25T05:41:55.761Z,1.69
2018-11-25T05:44:24.072Z,1.56
2018-11-25T05:46:52.344Z,1.53
2018-11-25T05:49:20.653Z,1.56
2018-11-25T05:51:48.921Z,1.47
2018-11-25T05:54:17.217Z,1.37
2018-11-25T05:56:45.544Z,1.28
2018-11-25T05:59:13.836Z,1.27
2018-11-25T06:01:42.106Z,1.12
2018-11-25T06:04:10.437Z,1.03
2018-11-25T06:06:38.703Z,1.04
2018-11-25T06:09:08.594Z,0.99
2018-11-25T06:11:37.427Z,1.10
2018-11-25T06:14:05.721Z,1.25
2018-11-25T06:16:34.022Z,1.23
2018-11-25T06:19:02.308Z,1.15
2018-11-25T06:21:30.600Z,1.21
2018-11-25T06:23:58.885Z,1.25
2018-11-25T06:26:27.204Z,1.22
2018-11-25T06:28:55.470Z,1.26
2018-11-25T06:31:23.756Z,1.25
2018-11-25T06:33:52.016Z,1.24
2018-11-25T06:36:20.302Z,1.39
2018-11-25T06:38:48.597Z,1.39
2018-11-25T06:41:16.897Z,1.44
2018-11-25T06:43:45.185Z,1.37
2018-11-25T06:46:13.632Z,1.33
2018-11-25T06:48:41.913Z,1.34
2018-11-25T06:51:10.208Z,1.26
2018-11-25T06:53:38.472Z,1.36
2018-11-25T06:56:06.832Z,1.41
2018-11-25T06:58:35.096Z,1.39
2018-11-25T07:01:03.412Z,1.57
2018-11-25T07:03:31.713Z,1.62
2018-11-25T07:06:00.033Z,1.75
2018-11-25T07:08:28.384Z,1.59
2018-11-25T07:10:56.904Z,1.63
2018-11-25T07:13:25.357Z,1.81
2018-11-25T07:15:53.652Z,1.91
2018-11-25T07:18:22.321Z,2.05
2018-11-25T07:20:50.616Z,2.04
2018-11-25T07:23:19.276Z,1.97
2018-11-25T07:25:47.565Z,1.95
2018-11-25T07:28:18.455Z,2.07
2018-11-25T07:30:44.747Z,2.16
2018-11-25T07:33:13.220Z,2.11
2018-11-25T07:35:41.713Z,2.15
2018-11-25T07:38:10.173Z,2.28
2018-11-25T07:40:38.677Z,2.08
2018-11-25T07:43:07.056Z,1.96
2018-11-25T07:45:35.362Z,1.98
2018-11-25T07:48:03.640Z,1.97
2018-11-25T07:50:31.925Z,2.10
2018-11-25T07:53:00.218Z,2.24
2018-11-25T07:55:28.511Z,2.50
2018-11-25T07:57:58.020Z,2.83
2018-11-25T08:00:27.037Z,3.22
2018-11-25T08:02:55.530Z,3.84
2018-11-25T08:05:26.582Z,4.33
2018-11-25T08:07:55.045Z,4.34
2018-11-25T08:10:23.504Z,4.48
2018-11-25T08:12:52.008Z,4.31
2018-11-25T08:15:20.619Z,4.19
2018-11-25T08:17:48.980Z,3.86
2018-11-25T08:20:18.941Z,4.04
2018-11-25T08:22:47.476Z,4.29
2018-11-25T08:25:19.147Z,4.67
2018-11-25T08:27:47.462Z,4.84
2018-11-25T08:30:17.632Z,4.84
2018-11-25T08:32:45.953Z,4.76
2018-11-25T08:35:14.887Z,4.77
2018-11-25T08:37:43.189Z,5.08
2018-11-25T08:40:18.448Z,5.37
2018-11-25T08:42:46.749Z,5.43
2018-11-25T08:45:15.452Z,5.80
2018-11-25T08:47:43.886Z,5.91
2018-11-25T08:50:12.976Z,5.82
2018-11-25T08:52:42.429Z,6.43
2018-11-25T08:55:19.545Z,6.94
2018-11-25T08:57:47.875Z,9.30
2018-11-25T09:00:19.784Z,11.82
2018-11-25T09:02:48.579Z,14.07
2018-11-25T09:05:16.933Z,16.41
2018-11-25T09:07:45.292Z,18.95
2018-11-25T09:12:34.616Z,21.75
2018-11-25T09:15:03.225Z,20.56
2018-11-25T09:17:31.968Z,22.39
2018-11-25T09:20:00.480Z,22.76
2018-11-25T09:22:28.954Z,20.84
2018-11-25T09:24:57.452Z,22.79
2018-11-25T09:27:25.751Z,22.76
2018-11-25T09:29:54.052Z,20.17
2018-11-25T09:32:23.124Z,19.30
2018-11-25T09:34:50.709Z,18.54
2018-11-25T09:37:19.396Z,19.00
2018-11-25T09:39:47.692Z,20.63
2018-11-25T09:42:16.354Z,23.08
2018-11-25T09:44:44.776Z,23.22
2018-11-25T09:47:13.248Z,23.28
2018-11-25T09:49:41.782Z,20.99
2018-11-25T09:52:10.209Z,20.56
2018-11-25T09:54:38.740Z,19.52
2018-11-25T09:57:07.677Z,17.07
2018-11-25T09:59:35.976Z,17.17
2018-11-25T10:02:04.269Z,15.14
2018-11-25T10:04:32.790Z,13.87
2018-11-25T10:07:01.085Z,12.49
2018-11-25T10:09:29.365Z,12.05
2018-11-25T10:11:58.075Z,11.28
2018-11-25T10:14:26.370Z,11.01
2018-11-25T10:16:54.677Z,10.95
2018-11-25T10:19:23.377Z,10.45
2018-11-25T10:21:51.705Z,10.24
2018-11-25T10:24:20.453Z,10.35
2018-11-25T10:26:49.068Z,10.77
2018-11-25T10:29:22.658Z,10.87
2018-11-25T10:31:52.100Z,11.06
2018-11-25T10:34:20.738Z,11.21
2018-11-25T10:36:50.338Z,11.36
2018-11-25T10:39:20.624Z,12.24
2018-11-25T10:41:48.993Z,11.53
2018-11-25T10:44:18.274Z,11.44
2018-11-25T10:46:45.636Z,11.47
2018-11-25T10:49:13.943Z,11.21
2018-11-25T10:51:43.017Z,11.08
2018-11-25T10:54:11.344Z,10.95
2018-11-25T10:56:39.681Z,10.63
2018-11-25T10:59:08.389Z,10.40
2018-11-25T11:01:51.441Z,10.25
2018-11-25T11:04:24.848Z,10.15
2018-11-25T11:06:58.279Z,9.85
2018-11-25T11:09:26.980Z,10.10
2018-11-25T11:11:58.221Z,10.05
2018-11-25T11:14:26.502Z,9.65
2018-11-25T11:16:54.828Z,9.24
2018-11-25T11:19:23.101Z,9.48
2018-11-25T11:21:51.405Z,9.25
2018-11-25T11:24:19.689Z,9.05
2018-11-25T11:26:48.740Z,8.97
2018-11-25T11:29:16.303Z,8.80
2018-11-25T11:31:44.593Z,8.52
2018-11-25T11:34:12.873Z,8.41
2018-11-25T11:36:41.180Z,8.46
2018-11-25T11:39:10.107Z,8.41
2018-11-25T11:41:38.400Z,8.13
2018-11-25T11:44:06.712Z,7.80
2018-11-25T11:46:34.986Z,7.51
2018-11-25T11:49:03.317Z,7.32
2018-11-25T11:51:31.596Z,7.27
2018-11-25T11:53:59.892Z,7.34
2018-11-25T11:56:28.172Z,7.35
2018-11-25T11:58:56.460Z,7.30
2018-11-25T12:01:24.726Z,7.09
2018-11-25T12:03:53.017Z,7.08
2018-11-25T12:06:21.290Z,7.17
2018-11-25T12:08:49.576Z,7.21
2018-11-25T12:11:17.857Z,7.24
2018-11-25T12:13:46.157Z,7.40
2018-11-25T12:16:14.459Z,7.37
2018-11-25T12:18:42.748Z,7.31
2018-11-25T12:21:11.024Z,7.41
2018-11-25T12:23:39.334Z,7.18
2018-11-25T12:26:07.624Z,7.07
2018-11-25T12:28:35.924Z,6.94
2018-11-25T12:31:04.248Z,6.89
2018-11-25T12:33:32.536Z,6.94
2018-11-25T12:36:00.832Z,6.76
2018-11-25T12:38:29.127Z,6.88
2018-11-25T12:40:57.412Z,6.86
2018-11-25T12:43:25.708Z,6.81
2018-11-25T12:45:53.991Z,6.96
2018-11-25T12:48:22.309Z,7.26
2018-11-25T12:50:50.644Z,7.30
2018-11-25T12:53:18.954Z,7.50
2018-11-25T12:55:47.260Z,7.60
2018-11-25T12:58:15.557Z,7.75
2018-11-25T13:00:45.394Z,7.79
2018-11-25T13:03:13.909Z,7.65
2018-11-25T13:05:46.359Z,7.64
2018-11-25T13:08:11.547Z,7.69
2018-11-25T13:10:39.849Z,7.73
2018-11-25T13:13:10.126Z,7.39
2018-11-25T13:15:38.432Z,7.40
2018-11-25T13:18:08.008Z,7.42
2018-11-25T13:20:36.366Z,7.29
2018-11-25T13:23:05.006Z,7.27
2018-11-25T13:25:33.448Z,7.19
2018-11-25T13:28:02.419Z,7.13
2018-11-25T13:30:31.680Z,7.18
2018-11-25T13:33:01.051Z,7.03
2018-11-25T13:35:31.540Z,7.00
2018-11-25T13:37:59.816Z,7.04
2018-11-25T13:40:28.105Z,7.00
2018-11-25T13:42:56.380Z,7.05
2018-11-25T13:45:24.694Z,6.88
2018-11-25T13:47:52.996Z,6.86
2018-11-25T13:50:21.283Z,6.85
2018-11-25T13:52:49.550Z,6.84
2018-11-25T13:55:19.096Z,7.06
2018-11-25T13:57:47.434Z,7.21
2018-11-25T14:00:34.724Z,7.15
2018-11-25T14:03:03.097Z,7.14
2018-11-25T14:05:31.409Z,7.25
2018-11-25T14:07:59.688Z,7.21
2018-11-25T14:10:30.580Z,7.21
2018-11-25T14:12:58.864Z,7.28
2018-11-25T14:15:27.293Z,7.18
2018-11-25T14:17:55.701Z,6.99
2018-11-25T14:20:24.001Z,7.03
2018-11-25T14:22:52.318Z,6.86
2018-11-25T14:25:21.526Z,6.97
2018-11-25T14:27:51.769Z,6.84
2018-11-25T14:30:22.803Z,6.77
2018-11-25T14:32:51.089Z,6.66
2018-11-25T14:35:19.632Z,6.70
2018-11-25T14:37:48.547Z,6.56
2018-11-25T14:40:18.228Z,6.51
2018-11-25T14:42:46.676Z,6.50
2018-11-25T14:45:17.037Z,6.42
2018-11-25T14:47:45.409Z,6.43
2018-11-25T14:50:16.790Z,6.40
2018-11-25T14:52:46.217Z,6.47
2018-11-25T14:55:15.136Z,6.34
2018-11-25T14:57:43.452Z,6.33
2018-11-25T15:00:14.064Z,6.28
2018-11-25T15:02:42.820Z,6.34
2018-11-25T15:05:16.738Z,6.33
2018-11-25T15:07:45.037Z,6.30
2018-11-25T15:10:13.572Z,6.22
2018-11-25T15:12:41.897Z,6.23
2018-11-25T15:15:11.792Z,6.25
2018-11-25T15:17:40.577Z,6.33
2018-11-25T15:20:10.368Z,6.25
2018-11-25T15:22:38.889Z,6.28
2018-11-25T15:25:10.073Z,6.33
2018-11-25T15:27:38.349Z,6.31
2018-11-25T15:30:09.493Z,6.26
2018-11-25T15:32:37.785Z,6.19
2018-11-25T15:35:08.228Z,6.21
2018-11-25T15:37:36.894Z,6.09
2018-11-25T15:40:08.332Z,6.18
2018-11-25T15:42:36.624Z,6.15
2018-11-25T15:45:05.757Z,6.21
2018-11-25T15:47:34.045Z,6.09
2018-11-25T15:50:02.341Z,6.25
2018-11-25T15:52:30.657Z,6.18
2018-11-25T15:54:58.953Z,6.10
2018-11-25T15:57:27.267Z,6.11
2018-11-25T15:59:55.570Z,6.11
2018-11-25T16:02:23.868Z,6.18
2018-11-25T16:04:52.133Z,6.10
2018-11-25T16:07:20.433Z,6.11
2018-11-25T16:09:48.724Z,6.11
2018-11-25T16:12:17.033Z,6.08
2018-11-25T16:14:45.357Z,6.07
2018-11-25T16:17:13.692Z,6.04
2018-11-25T16:19:42.001Z,6.03
2018-11-25T16:22:12.008Z,6.14
2018-11-25T16:24:40.321Z,6.07
2018-11-25T16:27:08.711Z,6.03
2018-11-25T16:29:36.997Z,6.02
2018-11-25T16:32:05.401Z,6.16
2018-11-25T16:34:33.672Z,6.02
2018-11-25T16:37:01.987Z,6.06
2018-11-25T16:39:30.269Z,6.01
2018-11-25T16:41:58.604Z,5.95
2018-11-25T16:44:28.881Z,6.02
2018-11-25T16:46:57.245Z,5.97
2018-11-25T16:49:25.533Z,5.92
2018-11-25T16:51:53.829Z,5.90
2018-11-25T16:54:22.103Z,5.90
2018-11-25T16:56:50.428Z,5.97
2018-11-25T16:59:18.716Z,5.93
2018-11-25T17:01:47.016Z,6.01
2018-11-25T17:04:15.302Z,6.04
2018-11-25T17:06:44.878Z,5.98
2018-11-25T17:09:13.576Z,5.97
2018-11-25T17:11:41.911Z,5.90
2018-11-25T17:14:10.225Z,5.87
2018-11-25T17:16:38.577Z,5.87
2018-11-25T17:19:06.905Z,5.76
2018-11-25T17:21:35.188Z,5.75
2018-11-25T17:24:03.513Z,5.81
2018-11-25T17:26:31.821Z,5.76
2018-11-25T17:29:00.197Z,5.77
2018-11-25T17:31:28.509Z,5.78
2018-11-25T17:33:56.825Z,5.77
2018-11-25T17:36:25.113Z,5.71
2018-11-25T17:38:53.433Z,5.76
2018-11-25T17:41:21.717Z,5.68
2018-11-25T17:43:50.048Z,5.70
2018-11-25T17:46:18.359Z,5.73
2018-11-25T17:48:46.673Z,5.68
2018-11-25T17:51:14.981Z,5.64
2018-11-25T17:53:43.263Z,5.65
2018-11-25T17:56:11.569Z,5.57
2018-11-25T17:58:39.900Z,5.61
2018-11-25T18:01:08.292Z,5.62
2018-11-25T18:03:37.572Z,5.65
2018-11-25T18:06:06.516Z,5.72
2018-11-25T18:08:34.830Z,5.52
2018-11-25T18:11:03.169Z,5.58
2018-11-25T18:13:33.698Z,5.61
2018-11-25T18:16:03.754Z,5.53
2018-11-25T18:19:20.453Z,5.57
2018-11-25T18:21:50.581Z,5.52
2018-11-25T18:24:18.892Z,5.48
2018-11-25T18:26:47.208Z,5.51
2018-11-25T18:29:15.537Z,5.52
2018-11-25T18:31:43.821Z,5.46
2018-11-25T18:34:12.172Z,5.48
2018-11-25T18:36:40.456Z,5.43
2018-11-25T18:39:10.748Z,5.40
2018-11-25T18:41:39.814Z,5.49
2018-11-25T18:44:08.144Z,5.40
2018-11-25T18:46:36.547Z,5.50
2018-11-25T18:49:07.296Z,5.47
2018-11-25T18:51:35.632Z,5.43
2018-11-25T18:54:03.962Z,5.44
2018-11-25T18:56:32.289Z,5.47
2018-11-25T18:59:00.616Z,5.52
2018-11-25T19:02:03.376Z,5.49
2018-11-25T19:04:31.667Z,5.44
2018-11-25T19:07:00.236Z,5.49
2018-11-25T19:09:28.521Z,5.52
2018-11-25T19:11:56.848Z,5.52
2018-11-25T19:14:25.156Z,5.41
2018-11-25T19:16:53.477Z,5.41
2018-11-25T19:19:21.765Z,5.50
2018-11-25T19:21:50.241Z,5.44
2018-11-25T19:24:18.721Z,5.41
2018-11-25T19:26:47.046Z,5.52
2018-11-25T19:29:15.325Z,5.51
2018-11-25T19:31:43.623Z,5.47
2018-11-25T19:34:11.901Z,5.42
2018-11-25T19:36:40.616Z,5.36
2018-11-25T19:39:09.974Z,5.43
2018-11-25T19:41:38.617Z,5.33
2018-11-25T19:44:07.164Z,5.39
2018-11-25T19:46:35.620Z,5.41
2018-11-25T19:49:04.654Z,5.35
2018-11-25T19:51:33.014Z,5.39
2018-11-25T19:54:01.705Z,5.38
2018-11-25T19:56:30.039Z,5.36
2018-11-25T19:58:59.760Z,5.38
2018-11-25T20:01:28.895Z,5.36
2018-11-25T20:03:57.220Z,5.34
2018-11-25T20:06:25.517Z,5.33
2018-11-25T20:08:53.823Z,5.35
2018-11-25T20:11:22.129Z,5.33
2018-11-25T20:13:50.449Z,5.25
2018-11-25T20:17:27.701Z,5.25
2018-11-25T20:19:55.991Z,5.36
2018-11-25T20:22:26.617Z,5.37
2018-11-25T20:24:54.974Z,5.36
2018-11-25T20:27:28.465Z,5.37
2018-11-25T20:29:57.052Z,5.34
2018-11-25T20:32:35.297Z,5.29
2018-11-25T20:35:05.094Z,5.30
2018-11-25T20:37:35.133Z,5.31
2018-11-25T20:40:04.215Z,5.26
2018-11-25T20:42:33.697Z,5.28
2018-11-25T20:45:03.499Z,5.33
2018-11-25T20:47:32.477Z,5.36
2018-11-25T20:50:01.548Z,5.27
2018-11-25T20:52:35.842Z,5.29
2018-11-25T20:55:04.431Z,5.34
2018-11-25T20:57:33.894Z,5.27
2018-11-25T21:00:02.736Z,5.33
2018-11-25T21:02:32.193Z,5.32
2018-11-25T21:05:02.424Z,5.30
2018-11-25T21:07:31.876Z,5.21
2018-11-25T21:10:00.159Z,5.27
2018-11-25T21:12:28.930Z,5.27
2018-11-25T21:14:57.724Z,5.27
2018-11-25T21:17:27.257Z,5.32
2018-11-25T21:19:56.771Z,5.23
2018-11-25T21:22:25.147Z,5.25
2018-11-25T21:24:53.505Z,5.22
2018-11-25T21:27:23.034Z,5.27
2018-11-25T21:29:51.388Z,5.24
2018-11-25T21:32:19.662Z,5.25
2018-11-25T21:34:48.185Z,5.28
2018-11-25T21:37:17.433Z,5.26
2018-11-25T21:39:46.057Z,5.27
2018-11-25T21:42:14.697Z,5.20
2018-11-25T21:44:43.512Z,5.19
2018-11-25T21:47:11.998Z,5.24
2018-11-25T21:49:40.374Z,5.27
2018-11-25T21:52:08.949Z,5.23
2018-11-25T21:54:37.925Z,5.17
2018-11-25T21:57:06.858Z,5.21
2018-11-25T21:59:36.729Z,5.19
2018-11-25T22:02:05.054Z,5.14
2018-11-25T22:04:34.225Z,5.21
2018-11-25T22:07:02.649Z,5.15
2018-11-25T22:09:32.357Z,5.30
2018-11-25T22:12:00.970Z,5.21
2018-11-25T22:14:30.681Z,5.25
2018-11-25T22:16:59.761Z,5.23
2018-11-25T22:19:28.104Z,5.16
2018-11-25T22:21:57.856Z,5.16
2018-11-25T22:24:28.357Z,5.25
2018-11-25T22:26:57.090Z,5.18
2018-11-25T22:29:25.894Z,5.21
2018-11-25T22:31:54.925Z,5.16
2018-11-25T22:34:23.314Z,5.23
2018-11-25T22:36:51.607Z,5.21
2018-11-25T22:39:19.872Z,5.21
2018-11-25T22:41:48.172Z,5.22
2018-11-25T22:44:16.455Z,5.28
2018-11-25T22:46:44.768Z,5.25
2018-11-25T22:49:13.061Z,5.17
2018-11-25T22:51:41.352Z,5.25
2018-11-25T22:54:09.601Z,5.20
2018-11-25T22:56:37.901Z,5.23
2018-11-25T22:59:06.331Z,5.20
2018-11-25T23:01:34.627Z,5.22
2018-11-25T23:04:14.267Z,5.19
2018-11-25T23:07:04.812Z,5.23
2018-11-25T23:09:33.117Z,5.15
2018-11-25T23:12:01.424Z,5.18
2018-11-25T23:14:29.721Z,5.19
2018-11-25T23:16:58.025Z,5.24
2018-11-25T23:19:26.313Z,5.33
2018-11-25T23:21:54.624Z,5.22
2018-11-25T23:24:23.188Z,5.17
2018-11-25T23:26:52.020Z,5.16
2018-11-25T23:29:20.344Z,5.20
2018-11-25T23:31:48.669Z,5.26
2018-11-25T23:34:16.965Z,5.18
2018-11-25T23:36:45.280Z,5.18
2018-11-25T23:39:13.572Z,5.17
2018-11-25T23:41:41.892Z,5.22
2018-11-25T23:44:10.265Z,5.20
2018-11-25T23:46:38.585Z,5.15
2018-11-25T23:49:06.917Z,5.18
2018-11-25T23:51:35.244Z,5.16
2018-11-25T23:54:03.592Z,5.13
2018-11-25T23:56:31.897Z,5.12
2018-11-25T23:59:00.205Z,5.13
